sensor_id;sensor_type;location;lat;lon;timestamp;P1;durP1;ratioP1;P2;durP2;ratioP2
36995;SDS011;22905;50.340;10.776;2023-03-14T00:01:35;4.40;;;2.00;;
36995;SDS011;22905;50.340;10.776;2023-03-14T00:06:36;3.90;;;2.20;;
36995;SDS011;22905;50.340;10.776;2023-03-14T00:11:36;6.25;;;2.63;;
36995;SDS011;22905;50.340;10.776;2023-03-14T00:16:36;6.13;;;2.80;;
36995;SDS011;22905;50.340;10.776;2023-03-14T00:21:37;5.53;;;1.93;;
36995;SDS011;22905;50.340;10.776;2023-03-14T00:26:37;4.50;;;2.20;;
36995;SDS011;22905;50.340;10.776;2023-03-14T00:31:37;9.13;;;2.97;;
36995;SDS011;22905;50.340;10.776;2023-03-14T00:36:39;8.20;;;2.88;;
36995;SDS011;22905;50.340;10.776;2023-03-14T00:41:39;2.33;;;1.98;;
36995;SDS011;22905;50.340;10.776;2023-03-14T00:46:39;8.27;;;2.55;;
36995;SDS011;22905;50.340;10.776;2023-03-14T00:51:40;5.70;;;1.85;;
36995;SDS011;22905;50.340;10.776;2023-03-14T00:56:40;1.42;;;1.02;;
36995;SDS011;22905;50.340;10.776;2023-03-14T01:01:41;1.97;;;1.20;;
36995;SDS011;22905;50.340;10.776;2023-03-14T01:06:41;1.98;;;1.10;;
36995;SDS011;22905;50.340;10.776;2023-03-14T01:11:42;1.43;;;1.20;;
36995;SDS011;22905;50.340;10.776;2023-03-14T01:16:46;2.65;;;1.35;;
36995;SDS011;22905;50.340;10.776;2023-03-14T01:21:46;1.30;;;1.15;;
36995;SDS011;22905;50.340;10.776;2023-03-14T01:26:46;2.97;;;1.55;;
36995;SDS011;22905;50.340;10.776;2023-03-14T01:31:47;1.02;;;0.90;;
36995;SDS011;22905;50.340;10.776;2023-03-14T01:36:47;1.70;;;1.15;;
36995;SDS011;22905;50.340;10.776;2023-03-14T01:41:47;3.30;;;0.85;;
36995;SDS011;22905;50.340;10.776;2023-03-14T01:46:48;1.77;;;0.87;;
36995;SDS011;22905;50.340;10.776;2023-03-14T01:51:56;1.80;;;1.45;;
36995;SDS011;22905;50.340;10.776;2023-03-14T01:57:05;3.75;;;1.00;;
36995;SDS011;22905;50.340;10.776;2023-03-14T02:02:09;1.48;;;1.05;;
36995;SDS011;22905;50.340;10.776;2023-03-14T02:12:19;13.60;;;1.60;;
36995;SDS011;22905;50.340;10.776;2023-03-14T02:17:20;1.92;;;0.80;;
36995;SDS011;22905;50.340;10.776;2023-03-14T02:22:22;3.22;;;1.20;;
36995;SDS011;22905;50.340;10.776;2023-03-14T02:27:22;3.80;;;1.08;;
36995;SDS011;22905;50.340;10.776;2023-03-14T02:32:23;1.83;;;1.60;;
36995;SDS011;22905;50.340;10.776;2023-03-14T02:37:25;2.05;;;1.10;;
36995;SDS011;22905;50.340;10.776;2023-03-14T02:42:29;3.67;;;0.98;;
36995;SDS011;22905;50.340;10.776;2023-03-14T02:47:30;3.95;;;1.27;;
36995;SDS011;22905;50.340;10.776;2023-03-14T02:52:30;1.63;;;1.50;;
36995;SDS011;22905;50.340;10.776;2023-03-14T02:57:30;1.33;;;1.10;;
36995;SDS011;22905;50.340;10.776;2023-03-14T03:02:31;2.93;;;1.60;;
36995;SDS011;22905;50.340;10.776;2023-03-14T03:07:31;1.90;;;0.95;;
36995;SDS011;22905;50.340;10.776;2023-03-14T03:12:32;3.83;;;1.33;;
36995;SDS011;22905;50.340;10.776;2023-03-14T03:17:32;1.63;;;1.10;;
36995;SDS011;22905;50.340;10.776;2023-03-14T03:22:32;2.90;;;1.10;;
36995;SDS011;22905;50.340;10.776;2023-03-14T03:27:33;1.48;;;1.25;;
36995;SDS011;22905;50.340;10.776;2023-03-14T03:32:35;2.58;;;1.10;;
36995;SDS011;22905;50.340;10.776;2023-03-14T03:37:35;1.48;;;1.20;;
36995;SDS011;22905;50.340;10.776;2023-03-14T03:42:36;2.80;;;1.85;;
36995;SDS011;22905;50.340;10.776;2023-03-14T03:47:36;4.65;;;1.17;;
36995;SDS011;22905;50.340;10.776;2023-03-14T03:52:36;2.80;;;1.60;;
36995;SDS011;22905;50.340;10.776;2023-03-14T03:57:37;3.80;;;1.20;;
36995;SDS011;22905;50.340;10.776;2023-03-14T04:02:37;2.67;;;1.30;;
36995;SDS011;22905;50.340;10.776;2023-03-14T04:07:37;5.30;;;1.33;;
36995;SDS011;22905;50.340;10.776;2023-03-14T04:12:38;1.38;;;1.10;;
36995;SDS011;22905;50.340;10.776;2023-03-14T04:17:38;3.72;;;1.40;;
36995;SDS011;22905;50.340;10.776;2023-03-14T04:22:39;1.80;;;1.20;;
36995;SDS011;22905;50.340;10.776;2023-03-14T04:27:39;2.22;;;1.00;;
36995;SDS011;22905;50.340;10.776;2023-03-14T04:32:39;1.42;;;1.10;;
36995;SDS011;22905;50.340;10.776;2023-03-14T04:37:40;2.50;;;1.02;;
36995;SDS011;22905;50.340;10.776;2023-03-14T04:42:41;2.50;;;1.50;;
36995;SDS011;22905;50.340;10.776;2023-03-14T04:47:42;3.88;;;1.20;;
36995;SDS011;22905;50.340;10.776;2023-03-14T04:52:42;4.67;;;1.20;;
36995;SDS011;22905;50.340;10.776;2023-03-14T04:57:42;3.45;;;1.00;;
36995;SDS011;22905;50.340;10.776;2023-03-14T05:02:43;2.70;;;1.13;;
36995;SDS011;22905;50.340;10.776;2023-03-14T05:07:43;0.88;;;0.88;;
36995;SDS011;22905;50.340;10.776;2023-03-14T05:12:43;4.13;;;2.53;;
36995;SDS011;22905;50.340;10.776;2023-03-14T05:17:44;3.30;;;1.25;;
36995;SDS011;22905;50.340;10.776;2023-03-14T05:22:44;4.32;;;1.20;;
36995;SDS011;22905;50.340;10.776;2023-03-14T05:27:44;4.22;;;1.20;;
36995;SDS011;22905;50.340;10.776;2023-03-14T05:32:45;1.23;;;1.20;;
36995;SDS011;22905;50.340;10.776;2023-03-14T05:37:45;3.67;;;1.17;;
36995;SDS011;22905;50.340;10.776;2023-03-14T05:42:45;2.17;;;1.20;;
36995;SDS011;22905;50.340;10.776;2023-03-14T05:47:45;2.92;;;1.10;;
36995;SDS011;22905;50.340;10.776;2023-03-14T05:52:46;3.70;;;1.60;;
36995;SDS011;22905;50.340;10.776;2023-03-14T05:57:46;3.30;;;1.52;;
36995;SDS011;22905;50.340;10.776;2023-03-14T06:02:47;2.95;;;1.02;;
36995;SDS011;22905;50.340;10.776;2023-03-14T06:07:47;4.22;;;1.63;;
36995;SDS011;22905;50.340;10.776;2023-03-14T06:12:48;7.72;;;1.33;;
36995;SDS011;22905;50.340;10.776;2023-03-14T06:17:48;2.72;;;1.83;;
36995;SDS011;22905;50.340;10.776;2023-03-14T06:22:49;5.68;;;1.17;;
36995;SDS011;22905;50.340;10.776;2023-03-14T06:27:49;3.92;;;1.55;;
36995;SDS011;22905;50.340;10.776;2023-03-14T06:32:49;5.10;;;2.03;;
36995;SDS011;22905;50.340;10.776;2023-03-14T06:37:50;4.30;;;1.42;;
36995;SDS011;22905;50.340;10.776;2023-03-14T06:42:50;3.28;;;1.30;;
36995;SDS011;22905;50.340;10.776;2023-03-14T06:47:50;2.43;;;1.50;;
36995;SDS011;22905;50.340;10.776;2023-03-14T06:52:51;4.43;;;1.42;;
36995;SDS011;22905;50.340;10.776;2023-03-14T06:57:51;6.90;;;2.50;;
36995;SDS011;22905;50.340;10.776;2023-03-14T07:02:51;2.60;;;1.17;;
36995;SDS011;22905;50.340;10.776;2023-03-14T07:07:52;9.40;;;1.27;;
36995;SDS011;22905;50.340;10.776;2023-03-14T07:12:52;5.50;;;1.73;;
36995;SDS011;22905;50.340;10.776;2023-03-14T07:17:53;1.30;;;1.08;;
36995;SDS011;22905;50.340;10.776;2023-03-14T07:22:53;3.05;;;1.20;;
36995;SDS011;22905;50.340;10.776;2023-03-14T07:27:54;4.83;;;1.70;;
36995;SDS011;22905;50.340;10.776;2023-03-14T07:32:54;2.75;;;1.38;;
36995;SDS011;22905;50.340;10.776;2023-03-14T07:37:54;3.85;;;1.23;;
36995;SDS011;22905;50.340;10.776;2023-03-14T07:42:55;8.17;;;2.47;;
36995;SDS011;22905;50.340;10.776;2023-03-14T07:47:55;5.93;;;1.23;;
36995;SDS011;22905;50.340;10.776;2023-03-14T07:52:57;1.43;;;1.10;;
36995;SDS011;22905;50.340;10.776;2023-03-14T07:57:57;5.80;;;1.73;;
36995;SDS011;22905;50.340;10.776;2023-03-14T08:02:58;1.53;;;0.80;;
36995;SDS011;22905;50.340;10.776;2023-03-14T08:07:58;2.27;;;1.20;;
36995;SDS011;22905;50.340;10.776;2023-03-14T08:12:59;5.03;;;1.83;;
36995;SDS011;22905;50.340;10.776;2023-03-14T08:17:59;4.95;;;2.10;;
36995;SDS011;22905;50.340;10.776;2023-03-14T08:23:00;4.63;;;1.50;;
36995;SDS011;22905;50.340;10.776;2023-03-14T08:28:01;4.00;;;1.30;;
36995;SDS011;22905;50.340;10.776;2023-03-14T08:33:01;2.40;;;1.90;;
36995;SDS011;22905;50.340;10.776;2023-03-14T08:38:02;2.78;;;1.60;;
36995;SDS011;22905;50.340;10.776;2023-03-14T08:43:02;3.42;;;1.20;;
36995;SDS011;22905;50.340;10.776;2023-03-14T08:48:02;2.78;;;1.75;;
36995;SDS011;22905;50.340;10.776;2023-03-14T08:53:04;2.80;;;1.00;;
36995;SDS011;22905;50.340;10.776;2023-03-14T08:58:04;2.47;;;1.20;;
36995;SDS011;22905;50.340;10.776;2023-03-14T09:03:05;3.73;;;1.50;;
36995;SDS011;22905;50.340;10.776;2023-03-14T09:08:05;2.58;;;1.17;;
36995;SDS011;22905;50.340;10.776;2023-03-14T09:13:05;1.83;;;1.23;;
36995;SDS011;22905;50.340;10.776;2023-03-14T09:18:06;2.33;;;1.27;;
36995;SDS011;22905;50.340;10.776;2023-03-14T09:23:06;3.17;;;1.50;;
36995;SDS011;22905;50.340;10.776;2023-03-14T09:28:06;3.05;;;1.20;;
36995;SDS011;22905;50.340;10.776;2023-03-14T09:33:06;2.67;;;1.23;;
36995;SDS011;22905;50.340;10.776;2023-03-14T09:38:07;1.40;;;1.23;;
36995;SDS011;22905;50.340;10.776;2023-03-14T09:43:13;2.30;;;1.25;;
36995;SDS011;22905;50.340;10.776;2023-03-14T09:48:15;2.60;;;1.23;;
36995;SDS011;22905;50.340;10.776;2023-03-14T09:53:24;2.70;;;1.63;;
36995;SDS011;22905;50.340;10.776;2023-03-14T09:58:26;5.65;;;1.38;;
36995;SDS011;22905;50.340;10.776;2023-03-14T10:08:34;4.43;;;1.92;;
36995;SDS011;22905;50.340;10.776;2023-03-14T10:13:34;5.43;;;1.73;;
36995;SDS011;22905;50.340;10.776;2023-03-14T10:18:34;4.03;;;1.10;;
36995;SDS011;22905;50.340;10.776;2023-03-14T10:23:35;0.93;;;0.83;;
36995;SDS011;22905;50.340;10.776;2023-03-14T10:28:49;1.05;;;0.95;;
36995;SDS011;22905;50.340;10.776;2023-03-14T10:33:58;3.38;;;2.58;;
36995;SDS011;22905;50.340;10.776;2023-03-14T10:39:18;1.23;;;0.80;;
36995;SDS011;22905;50.340;10.776;2023-03-14T10:44:23;2.78;;;1.77;;
36995;SDS011;22905;50.340;10.776;2023-03-14T10:49:35;1.38;;;0.90;;
36995;SDS011;22905;50.340;10.776;2023-03-14T10:54:36;2.67;;;1.48;;
36995;SDS011;22905;50.340;10.776;2023-03-14T10:59:37;1.52;;;1.42;;
36995;SDS011;22905;50.340;10.776;2023-03-14T11:10:42;1.65;;;1.20;;
36995;SDS011;22905;50.340;10.776;2023-03-14T11:21:20;1.10;;;0.82;;
36995;SDS011;22905;50.340;10.776;2023-03-14T11:31:33;1.23;;;0.90;;
36995;SDS011;22905;50.340;10.776;2023-03-14T11:36:39;4.50;;;2.30;;
36995;SDS011;22905;50.340;10.776;2023-03-14T11:41:43;1.33;;;1.10;;
36995;SDS011;22905;50.340;10.776;2023-03-14T11:46:53;3.17;;;1.98;;
36995;SDS011;22905;50.340;10.776;2023-03-14T11:52:01;3.28;;;1.25;;
36995;SDS011;22905;50.340;10.776;2023-03-14T11:57:05;1.45;;;0.80;;
36995;SDS011;22905;50.340;10.776;2023-03-14T12:07:31;2.15;;;1.05;;
36995;SDS011;22905;50.340;10.776;2023-03-14T12:12:39;1.75;;;0.80;;
36995;SDS011;22905;50.340;10.776;2023-03-14T12:17:40;1.75;;;1.42;;
36995;SDS011;22905;50.340;10.776;2023-03-14T12:22:43;3.83;;;1.50;;
36995;SDS011;22905;50.340;10.776;2023-03-14T12:38:12;1.20;;;1.10;;
36995;SDS011;22905;50.340;10.776;2023-03-14T12:43:30;1.67;;;1.02;;
36995;SDS011;22905;50.340;10.776;2023-03-14T12:48:31;2.33;;;1.90;;
36995;SDS011;22905;50.340;10.776;2023-03-14T12:53:48;3.53;;;1.33;;
36995;SDS011;22905;50.340;10.776;2023-03-14T12:59:05;3.85;;;1.00;;
36995;SDS011;22905;50.340;10.776;2023-03-14T13:04:14;2.70;;;0.90;;
36995;SDS011;22905;50.340;10.776;2023-03-14T13:14:30;1.80;;;1.38;;
36995;SDS011;22905;50.340;10.776;2023-03-14T13:19:31;3.65;;;1.30;;
36995;SDS011;22905;50.340;10.776;2023-03-14T13:24:33;0.83;;;0.83;;
36995;SDS011;22905;50.340;10.776;2023-03-14T13:29:34;3.25;;;1.92;;
36995;SDS011;22905;50.340;10.776;2023-03-14T13:34:35;2.28;;;1.20;;
36995;SDS011;22905;50.340;10.776;2023-03-14T13:39:37;3.15;;;1.58;;
36995;SDS011;22905;50.340;10.776;2023-03-14T13:44:39;2.50;;;1.40;;
36995;SDS011;22905;50.340;10.776;2023-03-14T13:49:40;2.28;;;1.10;;
36995;SDS011;22905;50.340;10.776;2023-03-14T13:54:41;1.67;;;1.48;;
36995;SDS011;22905;50.340;10.776;2023-03-14T13:59:41;5.15;;;1.30;;
36995;SDS011;22905;50.340;10.776;2023-03-14T14:04:41;1.95;;;1.17;;
36995;SDS011;22905;50.340;10.776;2023-03-14T14:09:42;2.15;;;1.38;;
36995;SDS011;22905;50.340;10.776;2023-03-14T14:20:07;1.25;;;1.13;;
36995;SDS011;22905;50.340;10.776;2023-03-14T14:25:12;1.27;;;1.15;;
36995;SDS011;22905;50.340;10.776;2023-03-14T14:45:52;1.48;;;1.20;;
36995;SDS011;22905;50.340;10.776;2023-03-14T14:51:00;1.70;;;1.30;;
36995;SDS011;22905;50.340;10.776;2023-03-14T14:56:18;1.00;;;0.90;;
36995;SDS011;22905;50.340;10.776;2023-03-14T15:01:23;4.57;;;2.47;;
36995;SDS011;22905;50.340;10.776;2023-03-14T15:06:24;12.30;;;5.13;;
36995;SDS011;22905;50.340;10.776;2023-03-14T15:11:28;0.88;;;0.88;;
36995;SDS011;22905;50.340;10.776;2023-03-14T15:16:29;12.25;;;6.68;;
36995;SDS011;22905;50.340;10.776;2023-03-14T15:21:31;2.97;;;2.53;;
36995;SDS011;22905;50.340;10.776;2023-03-14T15:26:33;1.85;;;1.50;;
36995;SDS011;22905;50.340;10.776;2023-03-14T15:31:34;1.00;;;1.00;;
36995;SDS011;22905;50.340;10.776;2023-03-14T15:36:35;2.08;;;1.88;;
36995;SDS011;22905;50.340;10.776;2023-03-14T15:41:36;1.52;;;1.30;;
36995;SDS011;22905;50.340;10.776;2023-03-14T15:46:36;1.20;;;1.00;;
36995;SDS011;22905;50.340;10.776;2023-03-14T15:51:37;2.58;;;1.30;;
36995;SDS011;22905;50.340;10.776;2023-03-14T15:56:37;1.83;;;1.60;;
36995;SDS011;22905;50.340;10.776;2023-03-14T16:01:37;4.15;;;2.20;;
36995;SDS011;22905;50.340;10.776;2023-03-14T16:06:38;2.57;;;1.47;;
36995;SDS011;22905;50.340;10.776;2023-03-14T16:11:38;1.38;;;1.25;;
36995;SDS011;22905;50.340;10.776;2023-03-14T16:16:38;1.52;;;1.13;;
36995;SDS011;22905;50.340;10.776;2023-03-14T16:21:39;1.63;;;1.20;;
36995;SDS011;22905;50.340;10.776;2023-03-14T16:26:39;1.73;;;1.20;;
36995;SDS011;22905;50.340;10.776;2023-03-14T16:31:39;0.80;;;0.80;;
36995;SDS011;22905;50.340;10.776;2023-03-14T16:36:41;1.85;;;1.40;;
36995;SDS011;22905;50.340;10.776;2023-03-14T16:41:42;1.10;;;1.03;;
36995;SDS011;22905;50.340;10.776;2023-03-14T16:46:42;1.25;;;1.00;;
36995;SDS011;22905;50.340;10.776;2023-03-14T16:51:42;2.95;;;1.40;;
36995;SDS011;22905;50.340;10.776;2023-03-14T16:56:43;1.70;;;1.13;;
36995;SDS011;22905;50.340;10.776;2023-03-14T17:01:44;13.20;;;6.95;;
36995;SDS011;22905;50.340;10.776;2023-03-14T17:06:44;6.53;;;2.30;;
36995;SDS011;22905;50.340;10.776;2023-03-14T17:11:45;9.27;;;2.67;;
36995;SDS011;22905;50.340;10.776;2023-03-14T17:16:45;8.48;;;2.47;;
36995;SDS011;22905;50.340;10.776;2023-03-14T17:21:45;4.97;;;1.90;;
36995;SDS011;22905;50.340;10.776;2023-03-14T17:26:46;8.33;;;1.83;;
36995;SDS011;22905;50.340;10.776;2023-03-14T17:31:46;4.32;;;1.42;;
36995;SDS011;22905;50.340;10.776;2023-03-14T17:36:46;3.60;;;1.27;;
36995;SDS011;22905;50.340;10.776;2023-03-14T17:41:46;8.70;;;2.40;;
36995;SDS011;22905;50.340;10.776;2023-03-14T17:46:47;5.93;;;3.37;;
36995;SDS011;22905;50.340;10.776;2023-03-14T17:51:48;5.75;;;3.33;;
36995;SDS011;22905;50.340;10.776;2023-03-14T17:56:48;2.53;;;2.03;;
36995;SDS011;22905;50.340;10.776;2023-03-14T18:01:48;5.53;;;2.53;;
36995;SDS011;22905;50.340;10.776;2023-03-14T18:06:49;8.48;;;2.58;;
36995;SDS011;22905;50.340;10.776;2023-03-14T18:11:49;6.80;;;1.90;;
36995;SDS011;22905;50.340;10.776;2023-03-14T18:16:49;7.37;;;2.20;;
36995;SDS011;22905;50.340;10.776;2023-03-14T18:21:52;6.18;;;2.17;;
36995;SDS011;22905;50.340;10.776;2023-03-14T18:26:52;9.07;;;3.33;;
36995;SDS011;22905;50.340;10.776;2023-03-14T18:31:53;16.75;;;6.25;;
36995;SDS011;22905;50.340;10.776;2023-03-14T18:36:55;8.63;;;3.35;;
36995;SDS011;22905;50.340;10.776;2023-03-14T18:41:55;9.70;;;1.83;;
36995;SDS011;22905;50.340;10.776;2023-03-14T18:46:56;5.68;;;2.88;;
36995;SDS011;22905;50.340;10.776;2023-03-14T18:51:56;4.68;;;2.35;;
36995;SDS011;22905;50.340;10.776;2023-03-14T18:56:56;8.45;;;2.47;;
36995;SDS011;22905;50.340;10.776;2023-03-14T19:01:59;14.00;;;4.72;;
36995;SDS011;22905;50.340;10.776;2023-03-14T19:06:59;11.23;;;4.43;;
36995;SDS011;22905;50.340;10.776;2023-03-14T19:12:00;5.75;;;2.78;;
36995;SDS011;22905;50.340;10.776;2023-03-14T19:17:01;12.43;;;3.50;;
36995;SDS011;22905;50.340;10.776;2023-03-14T19:22:01;7.50;;;2.73;;
36995;SDS011;22905;50.340;10.776;2023-03-14T19:27:01;13.50;;;4.03;;
36995;SDS011;22905;50.340;10.776;2023-03-14T19:32:02;13.25;;;4.20;;
36995;SDS011;22905;50.340;10.776;2023-03-14T19:37:02;8.10;;;3.93;;
36995;SDS011;22905;50.340;10.776;2023-03-14T19:42:02;14.13;;;3.87;;
36995;SDS011;22905;50.340;10.776;2023-03-14T19:47:03;13.00;;;4.37;;
36995;SDS011;22905;50.340;10.776;2023-03-14T19:52:04;13.98;;;5.45;;
36995;SDS011;22905;50.340;10.776;2023-03-14T19:57:05;16.45;;;5.63;;
36995;SDS011;22905;50.340;10.776;2023-03-14T20:02:05;23.67;;;6.85;;
36995;SDS011;22905;50.340;10.776;2023-03-14T20:07:05;19.70;;;6.65;;
36995;SDS011;22905;50.340;10.776;2023-03-14T20:12:06;26.02;;;7.70;;
36995;SDS011;22905;50.340;10.776;2023-03-14T20:17:07;19.48;;;7.38;;
36995;SDS011;22905;50.340;10.776;2023-03-14T20:22:07;17.17;;;5.53;;
36995;SDS011;22905;50.340;10.776;2023-03-14T20:27:07;17.03;;;5.03;;
36995;SDS011;22905;50.340;10.776;2023-03-14T20:32:08;11.88;;;5.10;;
36995;SDS011;22905;50.340;10.776;2023-03-14T20:37:09;19.92;;;5.22;;
36995;SDS011;22905;50.340;10.776;2023-03-14T20:42:12;10.18;;;4.40;;
36995;SDS011;22905;50.340;10.776;2023-03-14T20:47:12;9.73;;;3.67;;
36995;SDS011;22905;50.340;10.776;2023-03-14T20:52:13;13.33;;;4.47;;
36995;SDS011;22905;50.340;10.776;2023-03-14T20:57:13;11.47;;;3.33;;
36995;SDS011;22905;50.340;10.776;2023-03-14T21:02:15;13.15;;;3.85;;
36995;SDS011;22905;50.340;10.776;2023-03-14T21:07:15;8.53;;;2.53;;
36995;SDS011;22905;50.340;10.776;2023-03-14T21:12:16;13.80;;;4.47;;
36995;SDS011;22905;50.340;10.776;2023-03-14T21:17:16;17.20;;;4.65;;
36995;SDS011;22905;50.340;10.776;2023-03-14T21:22:17;10.30;;;3.37;;
36995;SDS011;22905;50.340;10.776;2023-03-14T21:27:17;17.27;;;5.15;;
36995;SDS011;22905;50.340;10.776;2023-03-14T21:32:18;9.15;;;4.18;;
36995;SDS011;22905;50.340;10.776;2023-03-14T21:37:18;18.90;;;5.78;;
36995;SDS011;22905;50.340;10.776;2023-03-14T21:42:19;12.32;;;3.55;;
36995;SDS011;22905;50.340;10.776;2023-03-14T21:47:20;8.80;;;3.00;;
36995;SDS011;22905;50.340;10.776;2023-03-14T21:52:22;17.03;;;3.53;;
36995;SDS011;22905;50.340;10.776;2023-03-14T21:57:22;10.10;;;3.58;;
36995;SDS011;22905;50.340;10.776;2023-03-14T22:02:31;14.52;;;4.05;;
36995;SDS011;22905;50.340;10.776;2023-03-14T22:07:31;12.90;;;4.13;;
36995;SDS011;22905;50.340;10.776;2023-03-14T22:12:32;13.27;;;4.75;;
36995;SDS011;22905;50.340;10.776;2023-03-14T22:17:32;22.97;;;5.17;;
36995;SDS011;22905;50.340;10.776;2023-03-14T22:22:33;16.75;;;5.75;;
36995;SDS011;22905;50.340;10.776;2023-03-14T22:27:33;21.47;;;5.20;;
36995;SDS011;22905;50.340;10.776;2023-03-14T22:32:33;17.10;;;4.22;;
36995;SDS011;22905;50.340;10.776;2023-03-14T22:37:33;12.38;;;3.47;;
36995;SDS011;22905;50.340;10.776;2023-03-14T22:42:34;22.23;;;4.60;;
36995;SDS011;22905;50.340;10.776;2023-03-14T22:47:34;13.50;;;3.85;;
36995;SDS011;22905;50.340;10.776;2023-03-14T22:52:34;13.05;;;4.25;;
36995;SDS011;22905;50.340;10.776;2023-03-14T22:57:35;8.73;;;2.73;;
36995;SDS011;22905;50.340;10.776;2023-03-14T23:02:36;10.57;;;3.67;;
36995;SDS011;22905;50.340;10.776;2023-03-14T23:07:37;12.05;;;3.53;;
36995;SDS011;22905;50.340;10.776;2023-03-14T23:12:38;14.65;;;3.67;;
36995;SDS011;22905;50.340;10.776;2023-03-14T23:17:38;11.15;;;2.88;;
36995;SDS011;22905;50.340;10.776;2023-03-14T23:22:38;9.40;;;3.60;;
36995;SDS011;22905;50.340;10.776;2023-03-14T23:27:39;11.95;;;3.80;;
36995;SDS011;22905;50.340;10.776;2023-03-14T23:32:45;8.85;;;4.55;;
36995;SDS011;22905;50.340;10.776;2023-03-14T23:37:46;8.75;;;2.53;;
36995;SDS011;22905;50.340;10.776;2023-03-14T23:42:46;12.87;;;2.57;;
36995;SDS011;22905;50.340;10.776;2023-03-14T23:47:47;11.80;;;2.83;;
36995;SDS011;22905;50.340;10.776;2023-03-14T23:52:47;10.90;;;4.22;;
36995;SDS011;22905;50.340;10.776;2023-03-14T23:57:48;13.80;;;2.30;;
